createdAt,value
2016-04-07T00:01:00.324Z,0
2016-04-07T00:01:53.983Z,0
2016-04-07T00:02:41.139Z,0
2016-04-07T00:03:54.005Z,0
2016-04-07T00:04:41.161Z,0
2016-04-07T00:05:41.210Z,0
2016-04-07T00:06:41.213Z,0
2016-04-07T00:07:53.953Z,0
2016-04-07T00:08:53.986Z,0
2016-04-07T00:09:41.299Z,0
2016-04-07T00:10:41.239Z,0
2016-04-07T00:11:41.274Z,0
2016-04-07T00:12:41.292Z,0
2016-04-07T00:13:54.047Z,0
2016-04-07T00:14:41.328Z,0
2016-04-07T00:15:54.107Z,0
2016-04-07T00:16:41.389Z,0
2016-04-07T00:17:54.264Z,0
2016-04-07T00:18:42.139Z,0
2016-04-07T00:19:41.561Z,0
2016-04-07T00:20:54.592Z,0
2016-04-07T00:21:41.514Z,0
2016-04-07T00:22:54.598Z,0
2016-04-07T00:23:43.004Z,0
2016-04-07T00:25:07.447Z,0
2016-04-07T00:25:41.791Z,0
2016-04-07T00:26:41.820Z,0
2016-04-07T00:27:41.890Z,0
2016-04-07T00:28:41.851Z,0
2016-04-07T00:29:54.603Z,0
2016-04-07T00:30:42.509Z,0
2016-04-07T00:32:01.130Z,0
2016-04-07T00:32:43.349Z,0
2016-04-07T00:34:07.638Z,0
2016-04-07T00:34:41.966Z,0
2016-04-07T00:35:42.050Z,0
2016-04-07T00:36:42.007Z,0
2016-04-07T00:37:42.042Z,0
2016-04-07T00:38:54.768Z,0
2016-04-07T00:39:42.143Z,0
2016-04-07T00:41:01.259Z,0
2016-04-07T00:41:42.306Z,0
2016-04-07T00:42:41.949Z,0
2016-04-07T00:43:42.515Z,0
2016-04-07T00:44:42.127Z,0
2016-04-07T00:45:42.348Z,0
2016-04-07T00:46:42.180Z,0
2016-04-07T00:47:42.182Z,0
2016-04-07T00:48:48.481Z,0
2016-04-07T00:49:48.609Z,0
2016-04-07T00:51:01.428Z,0
2016-04-07T00:51:42.240Z,0
2016-04-07T00:53:07.933Z,0
2016-04-07T00:53:54.998Z,0
2016-04-07T00:54:42.295Z,0
2016-04-07T00:55:42.329Z,0
2016-04-07T00:57:44.959Z,0
2016-04-07T00:57:57.525Z,0
2016-04-07T00:58:57.574Z,0
2016-04-07T00:59:57.577Z,0
2016-04-07T01:00:58.970Z,0
2016-04-07T01:01:57.598Z,0
2016-04-07T01:02:57.616Z,0
2016-04-07T01:03:57.603Z,0
2016-04-07T01:04:57.638Z,0
2016-04-07T01:05:57.656Z,0
2016-04-07T01:06:58.299Z,0
2016-04-07T01:07:58.302Z,0
2016-04-07T01:09:10.414Z,0
2016-04-07T01:10:10.416Z,0
2016-04-07T01:11:10.654Z,0
2016-04-07T01:12:16.953Z,0
2016-04-07T01:12:58.362Z,0
2016-04-07T01:14:17.052Z,0
2016-04-07T01:15:10.508Z,0
2016-04-07T01:16:17.620Z,0
2016-04-07T01:17:17.012Z,0
2016-04-07T01:18:23.484Z,0
2016-04-07T01:19:23.956Z,0
2016-04-07T01:19:57.834Z,0
2016-04-07T01:20:57.899Z,0
2016-04-07T01:21:57.901Z,0
2016-04-07T01:22:57.920Z,0
2016-04-07T01:23:58.547Z,0
2016-04-07T01:25:10.675Z,0
2016-04-07T01:25:58.662Z,0
2016-04-07T01:26:57.978Z,0
2016-04-07T01:28:01.011Z,0
2016-04-07T01:28:58.608Z,0
2016-04-07T01:29:57.986Z,0
2016-04-07T01:30:58.207Z,0
2016-04-07T01:31:58.647Z,0
2016-04-07T01:32:58.728Z,0
2016-04-07T01:33:58.074Z,0
2016-04-07T01:34:58.077Z,0
2016-04-07T01:35:58.111Z,0
2016-04-07T01:36:58.130Z,0
2016-04-07T01:37:58.398Z,0
2016-04-07T01:38:58.291Z,0
2016-04-07T01:39:58.153Z,0
2016-04-07T01:41:10.905Z,0
2016-04-07T01:41:58.205Z,0
2016-04-07T01:42:58.208Z,0
2016-04-07T01:43:58.227Z,0
2016-04-07T01:45:04.526Z,0
2016-04-07T01:45:58.294Z,0
2016-04-07T01:46:58.265Z,0
2016-04-07T01:47:58.315Z,0
2016-04-07T01:48:58.302Z,0
2016-04-07T01:49:58.368Z,0
2016-04-07T01:50:58.323Z,0
2016-04-07T01:51:58.529Z,0
2016-04-07T01:52:58.360Z,0
2016-04-07T01:54:11.206Z,0
2016-04-07T01:54:58.381Z,0
2016-04-07T01:55:58.384Z,0
2016-04-07T01:57:04.714Z,0
2016-04-07T01:58:11.155Z,0
2016-04-07T01:59:04.719Z,0
2016-04-07T01:59:58.456Z,0
2016-04-07T02:00:58.475Z,0
2016-04-07T02:01:58.494Z,0
2016-04-07T02:02:58.511Z,0
2016-04-07T02:03:58.514Z,0
2016-04-07T02:04:58.533Z,0
2016-04-07T02:05:58.551Z,0
2016-04-07T02:06:58.788Z,0
2016-04-07T02:07:58.588Z,0
2016-04-07T02:09:04.919Z,0
2016-04-07T02:09:58.828Z,0
2016-04-07T02:11:12.783Z,0
2016-04-07T02:11:58.723Z,0
2016-04-07T02:12:58.680Z,0
2016-04-07T02:13:58.682Z,0
2016-04-07T02:15:04.982Z,0
2016-04-07T02:15:58.719Z,0
2016-04-07T02:16:58.721Z,0
2016-04-07T02:17:58.755Z,0
2016-04-07T02:19:05.055Z,0
2016-04-07T02:19:58.760Z,0
2016-04-07T02:22:01.891Z,0
2016-04-07T02:23:01.972Z,0
2016-04-07T02:24:14.662Z,0
2016-04-07T02:25:03.337Z,0
2016-04-07T02:26:21.152Z,0
2016-04-07T02:27:14.717Z,0
2016-04-07T02:28:58.957Z,0
2016-04-07T02:29:14.739Z,0
2016-04-07T02:30:11.538Z,0
2016-04-07T02:31:30.728Z,0
2016-04-07T02:32:17.824Z,0
2016-04-07T02:33:30.874Z,0
2016-04-07T02:34:17.861Z,0
2016-04-07T02:35:11.598Z,0
2016-04-07T02:36:17.945Z,0
2016-04-07T02:37:11.666Z,0
2016-04-07T02:38:13.074Z,0
2016-04-07T02:39:11.655Z,0
2016-04-07T02:40:11.689Z,0
2016-04-07T02:41:11.707Z,0
2016-04-07T02:42:13.132Z,0
2016-04-07T02:43:11.729Z,0
2016-04-07T02:44:14.794Z,0
2016-04-07T02:45:11.765Z,0
2016-04-07T02:46:11.877Z,0
2016-04-07T02:47:24.537Z,0
2016-04-07T02:48:11.930Z,0
2016-04-07T02:49:31.010Z,0
2016-04-07T02:50:14.904Z,0
2016-04-07T02:51:15.016Z,0
2016-04-07T02:52:27.706Z,0
2016-04-07T02:53:27.662Z,0
2016-04-07T02:54:40.618Z,0
2016-04-07T02:55:27.793Z,0
2016-04-07T02:56:14.982Z,0
2016-04-07T02:57:15.032Z,0
2016-04-07T02:58:15.019Z,0
2016-04-07T02:59:27.756Z,0
2016-04-07T03:00:15.040Z,0
2016-04-07T03:01:15.121Z,0
2016-04-07T03:02:15.655Z,0
2016-04-07T03:03:15.080Z,0
2016-04-07T03:04:27.848Z,0
2016-04-07T03:05:15.117Z,0
2016-04-07T03:06:15.134Z,0
2016-04-07T03:07:21.419Z,0
2016-04-07T03:08:15.140Z,0
2016-04-07T03:09:27.908Z,0
2016-04-07T03:10:16.005Z,0
2016-04-07T03:11:15.805Z,0
2016-04-07T03:12:27.964Z,0
2016-04-07T03:13:15.856Z,0
2016-04-07T03:14:34.452Z,0
2016-04-07T03:15:15.893Z,0
2016-04-07T03:16:15.880Z,0
2016-04-07T03:17:28.038Z,0
2016-04-07T03:18:28.041Z,0
2016-04-07T03:19:34.512Z,0
2016-04-07T03:20:34.579Z,0
2016-04-07T03:21:41.018Z,0
2016-04-07T03:22:34.568Z,0
2016-04-07T03:24:30.651Z,0
2016-04-07T03:25:49.857Z,0
2016-04-07T03:26:36.954Z,0
2016-04-07T03:27:30.722Z,0
2016-04-07T03:28:30.693Z,0
2016-04-07T03:29:43.446Z,0
2016-04-07T03:30:30.761Z,0
2016-04-07T03:31:49.951Z,0
2016-04-07T03:32:37.017Z,0
2016-04-07T03:33:30.786Z,0
2016-04-07T03:34:30.788Z,0
2016-04-07T03:35:30.822Z,0
2016-04-07T03:36:30.825Z,0
2016-04-07T03:37:30.890Z,0
2016-04-07T03:38:31.064Z,0
2016-04-07T03:39:30.895Z,0
2016-04-07T03:40:30.867Z,0
2016-04-07T03:41:43.478Z,0
2016-04-07T03:42:32.356Z,0
2016-04-07T03:43:43.655Z,0
2016-04-07T03:44:30.925Z,0
2016-04-07T03:45:55.989Z,0
2016-04-07T03:46:37.242Z,0
2016-04-07T03:47:56.652Z,0
2016-04-07T03:48:43.809Z,0
2016-04-07T03:50:02.315Z,0
2016-04-07T03:50:50.221Z,0
2016-04-07T03:51:32.709Z,0
2016-04-07T03:53:33.683Z,0
2016-04-07T03:54:12.061Z,0
2016-04-07T03:54:46.311Z,0
2016-04-07T03:56:48.940Z,0
2016-04-07T03:57:20.725Z,0
2016-04-07T03:58:01.728Z,0
2016-04-07T03:59:27.214Z,0
2016-04-07T04:00:14.279Z,0
2016-04-07T04:01:32.892Z,0
2016-04-07T04:03:30.616Z,0
2016-04-07T04:04:04.900Z,0
2016-04-07T04:05:36.340Z,4
2016-04-07T04:06:11.295Z,4
2016-04-07T04:07:04.970Z,0
2016-04-07T04:08:24.161Z,0
2016-04-07T04:09:05.101Z,4
2016-04-07T04:11:14.638Z,4
2016-04-07T04:12:40.250Z,4
2016-04-07T04:13:49.830Z,8
2016-04-07T04:14:24.130Z,8
2016-04-07T04:15:24.164Z,8
2016-04-07T04:16:24.182Z,12
2016-04-07T04:17:36.935Z,12
2016-04-07T04:18:24.203Z,12
2016-04-07T04:19:49.894Z,16
2016-04-07T04:20:24.240Z,20
2016-04-07T04:22:26.871Z,20
2016-04-07T04:22:39.433Z,24
2016-04-07T04:23:39.451Z,28
2016-04-07T04:24:39.313Z,32
2016-04-07T04:25:52.222Z,40
2016-04-07T04:26:39.490Z,44
2016-04-07T04:27:58.712Z,56
2016-04-07T04:28:52.230Z,60
2016-04-07T04:30:10.891Z,72
2016-04-07T04:31:20.441Z,80
2016-04-07T04:31:54.784Z,92
2016-04-07T04:33:01.053Z,104
2016-04-07T04:34:07.590Z,120
2016-04-07T04:35:07.561Z,136
2016-04-07T04:36:13.423Z,156
2016-04-07T04:39:13.916Z,204
2016-04-07T04:40:20.356Z,232
2016-04-07T04:41:02.531Z,252
2016-04-07T04:42:27.080Z,288
2016-04-07T04:43:01.189Z,304
2016-04-07T04:44:32.491Z,348
2016-04-07T04:46:35.544Z,416
2016-04-07T04:47:23.624Z,440
2016-04-07T04:48:38.955Z,488
2016-04-07T04:49:33.099Z,524
2016-04-07T04:50:08.196Z,548
2016-04-07T04:51:07.666Z,588
2016-04-07T04:52:07.607Z,636
2016-04-07T04:53:20.360Z,692
2016-04-07T04:54:20.472Z,740
2016-04-07T04:55:07.677Z,776
2016-04-07T04:56:26.915Z,844
2016-04-07T04:57:20.433Z,888
2016-04-07T04:58:39.014Z,960
2016-04-07T04:59:33.407Z,1008
2016-04-07T05:01:10.365Z,1100
2016-04-07T05:01:48.615Z,1136
2016-04-07T05:02:22.931Z,1172
2016-04-07T05:03:22.949Z,1232
2016-04-07T05:04:22.998Z,1296
2016-04-07T05:05:29.298Z,1360
2016-04-07T05:06:42.239Z,1436
2016-04-07T05:07:23.007Z,1476
2016-04-07T05:08:42.228Z,1540
2016-04-07T05:09:23.059Z,1600
2016-04-07T05:10:23.046Z,1664
2016-04-07T05:11:23.111Z,1720
2016-04-07T05:12:23.286Z,1788
2016-04-07T05:13:29.491Z,1864
2016-04-07T05:14:35.870Z,1940
2016-04-07T05:15:23.138Z,1996
2016-04-07T05:16:23.141Z,2064
2016-04-07T05:17:29.440Z,2136
2016-04-07T05:18:35.911Z,2200
2016-04-07T05:19:42.414Z,2256
2016-04-07T05:20:42.213Z,2324
2016-04-07T05:21:49.263Z,2408
2016-04-07T05:22:35.969Z,2460
2016-04-07T05:24:38.459Z,2612
2016-04-07T05:25:38.570Z,2680
2016-04-07T05:26:38.510Z,2728
2016-04-07T05:27:38.560Z,2784
2016-04-07T05:28:38.516Z,2844
2016-04-07T05:29:38.566Z,2916
2016-04-07T05:30:51.287Z,2992
2016-04-07T05:31:38.540Z,3040
2016-04-07T05:33:04.279Z,3152
2016-04-07T05:33:51.217Z,3200
2016-04-07T05:35:10.504Z,3256
2016-04-07T05:35:38.645Z,3272
2016-04-07T05:36:38.725Z,3316
2016-04-07T05:37:38.650Z,3384
2016-04-07T05:38:38.700Z,3472
2016-04-07T05:39:38.671Z,3560
2016-04-07T05:40:38.689Z,3628
2016-04-07T05:41:38.708Z,3748
2016-04-07T05:42:38.725Z,3976
2016-04-07T05:43:38.744Z,4292
2016-04-07T05:44:45.013Z,4724
2016-04-07T05:45:51.500Z,5240
2016-04-07T05:48:01.192Z,7188
2016-04-07T05:49:01.195Z,8192
2016-04-07T05:50:14.044Z,8384
2016-04-07T05:51:02.638Z,8548
2016-04-07T05:53:17.083Z,8944
2016-04-07T05:54:23.727Z,9036
2016-04-07T05:55:17.105Z,9004
2016-04-07T05:56:17.139Z,9064
2016-04-07T05:57:23.407Z,9432
2016-04-07T05:58:23.440Z,9540
2016-04-07T05:59:29.990Z,9500
2016-04-07T06:00:29.915Z,9612
2016-04-07T06:01:36.433Z,9748
2016-04-07T06:02:36.420Z,9776
2016-04-07T06:03:17.267Z,9984
2016-04-07T06:04:36.473Z,10136
2016-04-07T06:05:17.162Z,10508
2016-04-07T06:06:17.322Z,10584
2016-04-07T06:07:17.542Z,10928
2016-04-07T06:08:17.347Z,11096
2016-04-07T06:09:17.459Z,11348
2016-04-07T06:10:30.181Z,11356
2016-04-07T06:11:17.450Z,11336
2016-04-07T06:12:36.639Z,11632
2016-04-07T06:13:30.205Z,11688
2016-04-07T06:14:43.177Z,11756
2016-04-07T06:17:17.356Z,12532
2016-04-07T06:17:51.700Z,12472
2016-04-07T06:19:23.690Z,13220
2016-04-07T06:20:04.502Z,12992
2016-04-07T06:22:06.948Z,13188
2016-04-07T06:23:26.185Z,13492
2016-04-07T06:24:10.234Z,13508
2016-04-07T06:25:29.299Z,13912
2016-04-07T06:26:10.098Z,14240
2016-04-07T06:27:16.382Z,15392
2016-04-07T06:28:10.167Z,16224
2016-04-07T06:29:22.904Z,16384
2016-04-07T06:30:10.203Z,17504
2016-04-07T06:31:29.300Z,17088
2016-04-07T06:32:23.100Z,16160
2016-04-07T06:34:26.480Z,18656
2016-04-07T06:34:39.058Z,19008
2016-04-07T06:36:29.626Z,17408
2016-04-07T06:36:42.204Z,17760
2016-04-07T06:38:39.209Z,16544
2016-04-07T06:38:51.787Z,17152
2016-04-07T06:40:54.434Z,16672
2016-04-07T06:41:32.670Z,16992
2016-04-07T06:42:07.048Z,19392
2016-04-07T06:44:09.679Z,20736
2016-04-07T06:44:22.258Z,20512
2016-04-07T06:46:51.074Z,12544
2016-04-07T06:48:51.846Z,13600
2016-04-07T06:49:04.439Z,17568
2016-04-07T06:51:45.307Z,18272
2016-04-07T06:54:31.846Z,20672
2016-04-07T06:56:22.679Z,7548
2016-04-07T06:57:03.507Z,21760
2016-04-07T06:59:06.107Z,25184
2016-04-07T06:59:37.891Z,24896
2016-04-07T07:00:31.440Z,26464
2016-04-07T07:02:15.742Z,23872
2016-04-07T07:02:28.461Z,24576
2016-04-07T07:04:25.373Z,29056
2016-04-07T07:05:35.532Z,33728
2016-04-07T07:06:13.926Z,37600
2016-04-07T07:07:38.819Z,47072
2016-04-07T07:08:17.118Z,48064
2016-04-07T07:08:51.415Z,47104
2016-04-07T07:10:49.858Z,42848
2016-04-07T07:11:02.373Z,42944
2016-04-07T07:12:59.441Z,43872
2016-04-07T07:13:12.241Z,44832
2016-04-07T07:15:03.728Z,43648
2016-04-07T07:15:19.372Z,44256
2016-04-07T07:17:07.877Z,45760
2016-04-07T07:17:21.174Z,45440
2016-04-07T07:19:17.366Z,42752
2016-04-07T07:19:29.944Z,10352
2016-04-07T07:21:32.575Z,40160
2016-04-07T07:21:45.153Z,44800
2016-04-07T07:22:45.187Z,8840
2016-04-07T07:23:57.940Z,36672
2016-04-07T07:24:51.801Z,42752
2016-04-07T07:26:54.823Z,46048
2016-04-07T07:28:14.032Z,14172
2016-04-07T07:29:07.596Z,9692
2016-04-07T07:31:11.086Z,7968
2016-04-07T07:32:20.449Z,9412
2016-04-07T07:32:54.886Z,8804
2016-04-07T07:35:35.743Z,40992
2016-04-07T07:36:10.277Z,41600
2016-04-07T07:38:32.111Z,42272
2016-04-07T07:38:51.002Z,22976
2016-04-07T07:39:45.009Z,29536
2016-04-07T07:40:57.481Z,44736
2016-04-07T07:41:57.498Z,19776
2016-04-07T07:43:03.830Z,14128
2016-04-07T07:44:04.036Z,12356
2016-04-07T07:46:06.650Z,37984
2016-04-07T07:46:22.231Z,46016
2016-04-07T07:48:16.222Z,7744
2016-04-07T07:48:28.690Z,7320
2016-04-07T07:50:19.992Z,10980
2016-04-07T07:50:45.148Z,10988
2016-04-07T07:51:51.588Z,11032
2016-04-07T07:52:45.544Z,11884
2016-04-07T07:53:58.109Z,15256
2016-04-07T07:54:58.143Z,13064
2016-04-07T07:56:04.677Z,11804
2016-04-07T07:57:11.229Z,15616
2016-04-07T07:58:04.682Z,13568
2016-04-07T08:00:13.816Z,9584
2016-04-07T08:00:26.425Z,9364
2016-04-07T08:02:29.071Z,10344
2016-04-07T08:03:07.465Z,11488
2016-04-07T08:03:41.793Z,11240
2016-04-07T08:05:13.157Z,8972
2016-04-07T08:05:41.813Z,8364
2016-04-07T08:06:41.847Z,7912
2016-04-07T08:07:54.584Z,10880
2016-04-07T08:08:41.993Z,9032
2016-04-07T08:10:07.687Z,11688
2016-04-07T08:10:42.015Z,9684
2016-04-07T08:12:38.942Z,9396
2016-04-07T08:12:51.567Z,9976
2016-04-07T08:14:04.272Z,9824
2016-04-07T08:14:51.572Z,11908
2016-04-07T08:15:51.590Z,11548
2016-04-07T08:16:57.859Z,13928
2016-04-07T08:17:53.050Z,14148
2016-04-07T08:19:04.380Z,14308
2016-04-07T08:19:51.680Z,13152
2016-04-07T08:20:51.650Z,15024
2016-04-07T08:21:53.106Z,10992
2016-04-07T08:22:53.219Z,9316
2016-04-07T08:23:53.830Z,7500
2016-04-07T08:25:04.521Z,9088
2016-04-07T08:25:51.788Z,7880
2016-04-07T08:27:10.810Z,7016
2016-04-07T08:27:51.841Z,6532
2016-04-07T08:28:51.860Z,7244
2016-04-07T08:29:51.878Z,7992
2016-04-07T08:30:52.241Z,8956
2016-04-07T08:31:51.930Z,10308
2016-04-07T08:32:51.933Z,12184
2016-04-07T08:34:04.701Z,13332
2016-04-07T08:34:53.391Z,11436
2016-04-07T08:35:51.972Z,12676
2016-04-07T08:36:52.147Z,14600
2016-04-07T08:37:52.667Z,14972
2016-04-07T08:38:53.450Z,14972
2016-04-07T08:39:52.063Z,14832
2016-04-07T08:41:04.815Z,11864
2016-04-07T08:41:51.411Z,14476
2016-04-07T08:42:52.226Z,14832
2016-04-07T08:44:04.916Z,13060
2016-04-07T08:45:04.935Z,10024
2016-04-07T08:46:11.566Z,9252
2016-04-07T08:47:05.019Z,7424
2016-04-07T08:48:17.915Z,9288
2016-04-07T08:48:52.305Z,9292
2016-04-07T08:49:52.401Z,9404
2016-04-07T08:50:52.920Z,11236
2016-04-07T08:51:52.422Z,12192
2016-04-07T08:52:52.347Z,10684
2016-04-07T08:53:52.365Z,13800
2016-04-07T08:54:52.540Z,14356
2016-04-07T08:55:59.011Z,13608
2016-04-07T08:56:52.467Z,12896
2016-04-07T08:58:11.659Z,14764
2016-04-07T08:58:52.519Z,13892
2016-04-07T09:00:18.197Z,12136
2016-04-07T09:01:05.384Z,12996
2016-04-07T09:02:23.859Z,16576
2016-04-07T09:03:11.798Z,15872
2016-04-07T09:03:52.970Z,15808
2016-04-07T09:05:18.272Z,16576
2016-04-07T09:05:52.632Z,16128
2016-04-07T09:06:52.619Z,16064
2016-04-07T09:08:18.358Z,14428
2016-04-07T09:08:52.718Z,13176
2016-04-07T09:10:18.364Z,11816
2016-04-07T09:10:52.927Z,10916
2016-04-07T09:11:52.741Z,12056
2016-04-07T09:12:59.042Z,13700
2016-04-07T09:13:59.060Z,13492
2016-04-07T09:14:52.797Z,14000
2016-04-07T09:15:52.815Z,13488
2016-04-07T09:16:52.849Z,10684
2016-04-07T09:17:59.118Z,10380
2016-04-07T09:18:59.151Z,9664
2016-04-07T09:19:52.935Z,9000
2016-04-07T09:21:05.687Z,11004
2016-04-07T09:21:54.363Z,10440
2016-04-07T09:22:53.123Z,11044
2016-04-07T09:23:53.069Z,12312
2016-04-07T09:24:54.717Z,11984
2016-04-07T09:26:05.897Z,12856
2016-04-07T09:26:53.264Z,13260
2016-04-07T09:28:06.022Z,10180
2016-04-07T09:29:06.070Z,8176
2016-04-07T09:30:12.680Z,8624
2016-04-07T09:31:19.071Z,7004
2016-04-07T09:31:53.430Z,6460
2016-04-07T09:33:19.103Z,6700
2016-04-07T09:34:06.213Z,7332
2016-04-07T09:34:53.501Z,7348
2016-04-07T09:35:53.570Z,8492
2016-04-07T09:36:53.547Z,12144
2016-04-07T09:38:06.302Z,12488
2016-04-07T09:38:54.229Z,11540
2016-04-07T09:40:06.531Z,9928
2016-04-07T09:40:54.239Z,9908
2016-04-07T09:41:53.680Z,10472
2016-04-07T09:42:53.700Z,11548
2016-04-07T09:43:53.844Z,10788
2016-04-07T09:44:53.723Z,9860
2016-04-07T09:45:53.741Z,8820
2016-04-07T09:46:53.807Z,12300
2016-04-07T09:47:53.810Z,13060
2016-04-07T09:49:00.078Z,15552
2016-04-07T09:49:53.847Z,13212
2016-04-07T09:50:53.834Z,13220
2016-04-07T09:52:06.618Z,14628
2016-04-07T09:53:00.230Z,15872
2016-04-07T09:54:50.173Z,16544
2016-04-07T09:55:02.610Z,16512
2016-04-07T09:56:02.644Z,15252
2016-04-07T09:57:02.663Z,13320
2016-04-07T09:58:02.727Z,13300
2016-04-07T09:59:03.324Z,13992
2016-04-07T10:00:03.108Z,12936
2016-04-07T10:01:02.735Z,12140
2016-04-07T10:02:02.832Z,12628
2016-04-07T10:03:02.631Z,12292
2016-04-07T10:04:15.575Z,14052
2016-04-07T10:05:15.578Z,15160
2016-04-07T10:06:28.534Z,13980
2016-04-07T10:07:16.334Z,12972
2016-04-07T10:08:34.194Z,12812
2016-04-07T10:09:03.147Z,12344
2016-04-07T10:11:18.219Z,10876
2016-04-07T10:12:18.314Z,13436
2016-04-07T10:13:31.020Z,13552
2016-04-07T10:14:18.320Z,14468
2016-04-07T10:15:37.525Z,12952
2016-04-07T10:16:24.608Z,10316
2016-04-07T10:17:18.375Z,9552
2016-04-07T10:19:27.772Z,9452
2016-04-07T10:20:47.305Z,12780
2016-04-07T10:21:21.621Z,11944
2016-04-07T10:22:52.873Z,15380
2016-04-07T10:23:21.580Z,14708
2016-04-07T10:24:21.613Z,14364
2016-04-07T10:25:22.366Z,13432
2016-04-07T10:26:34.400Z,12836
2016-04-07T10:27:22.293Z,14020
2016-04-07T10:28:47.390Z,15504
2016-04-07T10:29:34.454Z,16224
2016-04-07T10:30:53.223Z,13028
2016-04-07T10:32:24.853Z,14008
2016-04-07T10:33:24.871Z,15840
2016-04-07T10:34:25.484Z,13240
2016-04-07T10:35:37.659Z,11988
2016-04-07T10:36:37.879Z,11436
2016-04-07T10:37:50.648Z,12196
2016-04-07T10:38:24.994Z,15020
2016-04-07T10:39:25.028Z,12128
2016-04-07T10:40:25.327Z,9032
2016-04-07T10:41:25.064Z,7764
2016-04-07T10:42:25.052Z,10400
2016-04-07T10:43:25.117Z,12128
2016-04-07T10:44:25.136Z,14068
2016-04-07T10:45:25.170Z,13876
2016-04-07T10:46:25.188Z,13412
2016-04-07T10:47:25.175Z,15680
2016-04-07T10:48:25.319Z,15968
2016-04-07T10:49:25.289Z,15184
2016-04-07T10:50:37.980Z,12356
2016-04-07T10:51:25.467Z,11540
2016-04-07T10:52:25.298Z,11072
2016-04-07T10:53:38.050Z,8228
2016-04-07T10:54:25.335Z,8580
2016-04-07T10:55:44.555Z,8672
2016-04-07T10:56:31.480Z,9864
2016-04-07T10:57:41.249Z,8940
2016-04-07T10:58:28.485Z,10352
2016-04-07T10:59:47.738Z,11764
2016-04-07T11:00:28.521Z,10660
2016-04-07T11:01:28.618Z,9188
2016-04-07T11:02:41.293Z,8576
2016-04-07T11:03:28.609Z,9092
2016-04-07T11:04:28.596Z,12996
2016-04-07T11:05:41.317Z,14620
2016-04-07T11:06:41.445Z,14316
2016-04-07T11:08:44.856Z,14316
2016-04-07T11:08:57.450Z,14352
2016-04-07T11:09:57.452Z,16512
2016-04-07T11:11:03.752Z,14940
2016-04-07T11:12:03.786Z,11644
2016-04-07T11:12:57.539Z,10468
2016-04-07T11:13:57.557Z,10868
2016-04-07T11:15:10.422Z,14308
2016-04-07T11:15:57.641Z,13468
2016-04-07T11:16:57.628Z,12300
2016-04-07T11:17:57.661Z,12968
2016-04-07T11:18:57.680Z,12776
2016-04-07T11:20:10.420Z,11332
2016-04-07T11:20:57.733Z,10132
2016-04-07T11:21:57.751Z,11240
2016-04-07T11:22:57.613Z,10224
2016-04-07T11:23:58.366Z,9472
2016-04-07T11:24:57.852Z,10096
2016-04-07T11:25:57.808Z,12052
2016-04-07T11:26:57.857Z,13660
2016-04-07T11:27:57.860Z,13948
2016-04-07T11:28:58.504Z,13364
2016-04-07T11:30:10.650Z,14172
2016-04-07T11:30:58.275Z,13908
2016-04-07T11:32:54.937Z,11696
2016-04-07T11:33:26.705Z,11308
2016-04-07T11:34:07.533Z,9688
2016-04-07T11:36:10.166Z,9364
2016-04-07T11:36:22.729Z,9384
2016-04-07T11:37:22.762Z,9368
2016-04-07T11:38:29.046Z,9824
2016-04-07T11:39:22.799Z,10280
2016-04-07T11:40:35.537Z,10824
2016-04-07T11:41:22.882Z,11376
2016-04-07T11:42:42.089Z,12504
2016-04-07T11:43:35.638Z,11680
2016-04-07T11:45:25.518Z,11260
2016-04-07T11:45:50.847Z,10932
2016-04-07T11:46:38.131Z,10020
2016-04-07T11:47:57.352Z,7860
2016-04-07T11:48:44.292Z,7240
2016-04-07T11:50:38.235Z,5664
2016-04-07T11:50:50.797Z,5340
2016-04-07T11:51:50.909Z,4572
2016-04-07T11:52:50.850Z,4252
2016-04-07T11:53:51.024Z,4296
2016-04-07T11:54:51.542Z,3628
2016-04-07T11:55:50.905Z,3292
2016-04-07T11:57:03.673Z,3364
2016-04-07T11:57:50.957Z,3296
2016-04-07T11:59:03.678Z,3488
2016-04-07T11:59:50.994Z,3928
2016-04-07T12:01:03.777Z,4800
2016-04-07T12:02:03.796Z,3956
2016-04-07T12:02:51.643Z,3784
2016-04-07T12:03:51.082Z,3776
2016-04-07T12:04:51.179Z,5520
2016-04-07T12:05:51.760Z,7088
2016-04-07T12:06:51.199Z,5724
2016-04-07T12:08:03.890Z,5316
2016-04-07T12:08:51.799Z,6468
2016-04-07T12:10:10.492Z,9484
2016-04-07T12:11:03.976Z,12080
2016-04-07T12:12:16.715Z,15144
2016-04-07T12:12:51.262Z,15968
2016-04-07T12:14:22.596Z,14072
2016-04-07T12:15:04.034Z,12044
2016-04-07T12:15:51.303Z,10592
2016-04-07T12:17:04.070Z,11148
2016-04-07T12:17:51.386Z,12248
2016-04-07T12:18:57.653Z,11672
2016-04-07T12:19:51.422Z,12548
2016-04-07T12:21:10.630Z,12348
2016-04-07T12:21:51.755Z,10980
2016-04-07T12:23:17.119Z,7204
2016-04-07T12:24:00.838Z,5900
2016-04-07T12:25:13.579Z,4360
2016-04-07T12:26:13.738Z,4624
2016-04-07T12:27:00.925Z,5340
2016-04-07T12:28:20.180Z,7320
2016-04-07T12:29:26.808Z,6852
2016-04-07T12:31:36.266Z,6356
2016-04-07T12:32:36.316Z,8896
2016-04-07T12:33:42.600Z,9580
2016-04-07T12:34:36.931Z,10752
2016-04-07T12:35:42.699Z,12304
2016-04-07T12:36:36.609Z,13888
2016-04-07T12:37:36.440Z,14456
2016-04-07T12:38:42.692Z,14604
2016-04-07T12:39:36.429Z,14512
2016-04-07T12:40:49.181Z,13040
2016-04-07T12:41:42.762Z,12536
2016-04-07T12:42:36.515Z,12788
2016-04-07T12:43:36.534Z,13104
2016-04-07T12:44:36.552Z,12612
2016-04-07T12:45:42.820Z,12180
2016-04-07T12:46:42.823Z,12744
2016-04-07T12:47:55.888Z,12656
2016-04-07T12:48:36.641Z,12152
2016-04-07T12:51:12.164Z,13004
2016-04-07T12:52:37.760Z,13264
2016-04-07T12:53:52.951Z,14852
2016-04-07T12:54:21.672Z,14672
2016-04-07T12:55:21.597Z,14572
2016-04-07T12:56:21.728Z,14968
2016-04-07T12:57:27.996Z,15584
2016-04-07T12:58:28.014Z,14680
2016-04-07T12:59:41.016Z,11912
2016-04-07T13:00:21.879Z,10456
2016-04-07T13:01:23.304Z,10296
2016-04-07T13:02:21.978Z,11936
2016-04-07T13:03:41.059Z,13676
2016-04-07T13:04:22.483Z,15200
2016-04-07T13:05:52.565Z,14460
2016-04-07T13:06:34.645Z,13464
2016-04-07T13:08:28.244Z,10708
2016-04-07T13:09:22.012Z,10016
2016-04-07T13:10:21.968Z,8816
2016-04-07T13:11:22.659Z,7644
2016-04-07T13:12:34.770Z,8748
2016-04-07T13:13:22.274Z,9264
2016-04-07T13:14:41.307Z,6624
2016-04-07T13:15:22.123Z,6232
2016-04-07T13:16:47.859Z,5996
2016-04-07T13:17:22.800Z,6284
2016-04-07T13:18:22.177Z,5804
2016-04-07T13:19:22.242Z,5896
2016-04-07T13:20:22.839Z,6636
2016-04-07T13:21:22.247Z,6892
2016-04-07T13:22:22.876Z,6608
2016-04-07T13:23:35.034Z,6328
2016-04-07T13:24:22.319Z,6816
2016-04-07T13:25:22.431Z,7456
2016-04-07T13:26:22.496Z,8016
2016-04-07T13:27:22.425Z,9796
2016-04-07T13:28:22.412Z,13808
2016-04-07T13:29:22.446Z,18400
2016-04-07T13:30:23.074Z,19072
2016-04-07T13:31:22.483Z,15648
2016-04-07T13:32:22.486Z,12384
2016-04-07T13:33:22.629Z,10732
2016-04-07T13:34:22.585Z,10224
2016-04-07T13:35:22.571Z,10560
2016-04-07T13:36:35.293Z,10328
2016-04-07T13:37:28.873Z,10500
2016-04-07T13:38:35.376Z,10520
2016-04-07T13:39:22.676Z,10120
2016-04-07T13:40:22.726Z,10072
2016-04-07T13:41:22.807Z,9268
2016-04-07T13:42:22.918Z,9312
2016-04-07T13:43:29.000Z,8912
2016-04-07T13:44:22.784Z,9156
2016-04-07T13:45:22.786Z,9880
2016-04-07T13:46:22.820Z,12696
2016-04-07T13:47:23.010Z,12384
2016-04-07T13:48:22.841Z,14580
2016-04-07T13:49:22.844Z,15680
2016-04-07T13:50:22.987Z,13456
2016-04-07T13:51:29.130Z,14588
2016-04-07T13:52:22.914Z,16256
2016-04-07T13:53:35.683Z,15552
2016-04-07T13:54:30.623Z,15744
2016-04-07T13:55:37.219Z,14632
2016-04-07T13:56:48.691Z,13644
2016-04-07T13:57:42.240Z,12788
2016-04-07T13:58:48.727Z,12600
2016-04-07T13:59:23.089Z,11512
2016-04-07T14:00:23.077Z,14764
2016-04-07T14:01:35.970Z,14524
2016-04-07T14:02:23.738Z,12800
2016-04-07T14:03:23.147Z,9728
2016-04-07T14:04:23.790Z,8332
2016-04-07T14:05:35.934Z,6916
2016-04-07T14:06:23.904Z,8220
2016-04-07T14:07:42.532Z,11800
2016-04-07T14:08:24.676Z,12744
2016-04-07T14:09:48.944Z,12460
2016-04-07T14:10:23.338Z,12464
2016-04-07T14:11:49.012Z,9824
2016-04-07T14:12:36.281Z,8204
2016-04-07T14:13:49.049Z,8352
2016-04-07T14:14:42.645Z,11148
2016-04-07T14:15:26.523Z,12072